Time;durP1;ratioP1;P1;durP2;ratioP2;P2;SDS_P1;SDS_P2;PMS_P1;PMS_P2;Temp;Humidity;BMP_temperature;BMP_pressure;BME280_temperature;BME280_humidity;BME280_pressure;Samples;Min_cycle;Max_cycle;Signal;HPM_P1;HPM_P2
2021/06/24 00:00:16;;;;;;;;;;;;;;;14.74;100.00;96149.63;1049031;28;20385;-73
2021/06/24 00:00:47;;;;;;;;;;;;;;;14.75;100.00;96148.53;1049207;28;19912;-73
2021/06/24 00:01:17;;;;;;;;;;;;;;;14.73;100.00;96148.03;1049213;28;19923;-73
2021/06/24 00:01:47;;;;;;;;;;;;;;;14.73;100.00;96143.44;1049273;28;20266;-73
2021/06/24 00:02:17;;;;;;;;;;;;;;;14.73;100.00;96148.03;1049178;28;19962;-73
2021/06/24 00:02:48;;;;;;;;;;;;;;;14.74;100.00;96155.00;1049084;28;19908;-72
2021/06/24 00:03:18;;;;;;;;;;;;;;;14.73;100.00;96150.72;1049136;28;19916;-72
2021/06/24 00:03:48;;;;;;;;;;;;;;;14.72;100.00;96152.59;1053019;28;19919;-72
2021/06/24 00:04:19;;;;;;;;;;;;;;;14.76;100.00;96152.84;1053005;28;20446;-73
2021/06/24 00:04:49;;;;;;;;;;;;;;;14.76;100.00;96150.94;1048799;28;19944;-72
2021/06/24 00:05:19;;;;;;;;;;;;;;;14.79;100.00;96153.06;1048768;28;19916;-72
2021/06/24 00:05:49;;;;;;;;;;;;;;;14.80;100.00;96148.47;1048839;28;19917;-73
2021/06/24 00:06:20;;;;;;;;;;;;;;;14.80;100.00;96161.91;1048732;28;19944;-73
2021/06/24 00:06:50;;;;;;;;;;;;;;;14.82;100.00;96162.41;1049010;28;20383;-72
2021/06/24 00:07:20;;;;;;;;;;;;;;;14.83;100.00;96166.69;1049139;28;19923;-72
2021/06/24 00:07:50;;;;;;;;;;;;;;;14.86;100.00;96160.75;1049142;28;19973;-72
2021/06/24 00:08:21;;;;;;;;;;;;;;;14.87;100.00;96158.84;1049201;28;19916;-72
2021/06/24 00:08:51;;;;;;;;;;;;;;;14.89;100.00;96165.53;1049135;28;20034;-72
2021/06/24 00:09:21;;;;;;;;;;;;;;;14.91;100.00;96173.31;1049121;28;19917;-72
2021/06/24 00:09:52;;;;;;;;;;;;;;;14.93;100.00;96165.75;1048984;28;19916;-73
2021/06/24 00:10:22;;;;;;;;;;;;;;;14.93;100.00;96166.53;1049159;28;20336;-72
2021/06/24 00:10:53;;;;;;;;;;;;;;;14.95;100.00;96168.97;1049112;28;19924;-72
2021/06/24 00:11:23;;;;;;;;;;;;;;;14.97;100.00;96167.56;1049171;28;20002;-72
2021/06/24 00:11:53;;;;;;;;;;;;;;;14.98;100.00;96163.78;1049178;28;19916;-73
2021/06/24 00:12:23;;;;;;;;;;;;;;;15.00;100.00;96167.00;1049170;28;19905;-72
2021/06/24 00:12:54;;;;;;;;;;;;;;;15.00;100.00;96161.59;1049138;28;19916;-73
2021/06/24 00:13:24;;;;;;;;;;;;;;;15.00;100.00;96164.28;1049178;28;19909;-72
2021/06/24 00:13:55;;;;;;;;;;;;;;;15.00;100.00;96168.88;1049156;28;20032;-73
2021/06/24 00:14:25;;;;;;;;;;;;;;;15.02;100.00;96162.09;1048752;28;19947;-72
2021/06/24 00:14:55;;;;;;;;;;;;;;;15.03;100.00;96173.66;1048744;28;20747;-73
2021/06/24 00:15:25;;;;;;;;;;;;;;;15.04;100.00;96161.78;1048787;28;19958;-72
2021/06/24 00:15:56;;;;;;;;;;;;;;;15.05;100.00;96164.22;1048798;28;19917;-73
2021/06/24 00:16:26;;;;;;;;;;;;;;;15.06;100.00;96167.69;1049163;28;20277;-72
2021/06/24 00:16:57;;;;;;;;;;;;;;;15.04;100.00;96167.97;1048987;28;20054;-72
2021/06/24 00:17:27;;;;;;;;;;;;;;;15.05;100.00;96166.13;1049013;28;19947;-72
2021/06/24 00:17:57;;;;;;;;;;;;;;;15.03;100.00;96166.38;1049043;28;20344;-73
2021/06/24 00:18:27;;;;;;;;;;;;;;;15.05;100.00;96166.91;1049037;28;19909;-73
2021/06/24 00:18:58;;;;;;;;;;;;;;;15.04;100.00;96159.91;1049062;28;19927;-72
2021/06/24 00:19:28;;;;;;;;;;;;;;;15.03;100.00;96163.69;1048984;28;19909;-72
2021/06/24 00:19:58;;;;;;;;;;;;;;;15.05;100.00;96158.84;1048756;28;20017;-73
2021/06/24 00:20:28;;;;;;;;;;;;;;;15.06;100.00;96163.13;1049086;28;20285;-72
2021/06/24 00:20:59;;;;;;;;;;;;;;;15.07;100.00;96150.44;1049036;28;19952;-73
2021/06/24 00:21:29;;;;;;;;;;;;;;;15.06;100.00;96157.72;1049112;28;20022;-73
2021/06/24 00:21:59;;;;;;;;;;;;;;;15.07;100.00;96151.25;1049105;28;20418;-73
2021/06/24 00:22:30;;;;;;;;;;;;;;;15.08;100.00;96152.03;1048967;28;19931;-73
2021/06/24 00:23:00;;;;;;;;;;;;;;;15.02;100.00;96156.72;1049093;28;19963;-73
2021/06/24 00:23:30;;;;;;;;;;;;;;;15.03;100.00;96160.19;1049055;28;20448;-73
2021/06/24 00:24:00;;;;;;;;;;;;;;;15.04;100.00;96159.91;1049088;28;19917;-72
2021/06/24 00:24:31;;;;;;;;;;;;;;;15.07;100.00;96162.00;1049095;28;19904;-72
2021/06/24 00:25:01;;;;;;;;;;;;;;;15.10;100.00;96163.34;1048664;28;19917;-72
2021/06/24 00:25:31;;;;;;;;;;;;;;;15.08;100.00;96152.84;1048732;28;19905;-72
2021/06/24 00:26:02;;;;;;;;;;;;;;;15.10;100.00;96163.34;1052871;28;20284;-73
2021/06/24 00:26:32;;;;;;;;;;;;;;;15.08;100.00;96163.59;1052980;28;19908;-73
2021/06/24 00:27:03;;;;;;;;;;;;;;;15.09;100.00;96164.41;1057205;28;19918;-73
2021/06/24 00:27:33;;;;;;;;;;;;;;;15.08;100.00;96168.19;1057077;28;20356;-72
2021/06/24 00:28:03;;;;;;;;;;;;;;;15.06;100.00;96170.41;1049024;28;19916;-73
2021/06/24 00:28:34;;;;;;;;;;;;;;;15.01;100.00;96168.56;1049014;28;19909;-73
2021/06/24 00:29:04;;;;;;;;;;;;;;;14.98;100.00;96171.06;1048992;28;19938;-73
2021/06/24 00:29:34;;;;;;;;;;;;;;;14.97;100.00;96164.88;1048979;28;19909;-73
2021/06/24 00:30:05;;;;;;;;;;;;;;;14.99;100.00;96168.06;1049033;28;19917;-72
2021/06/24 00:30:36;;;;;;;;;;;;;;;15.00;100.00;96164.28;1049068;28;20372;-73
2021/06/24 00:31:07;;;;;;;;;;;;;;;15.00;100.00;96168.88;1049139;28;19919;-73
2021/06/24 00:31:37;;;;;;;;;;;;;;;15.02;100.00;96172.06;1048999;28;19927;-72
2021/06/24 00:32:07;;;;;;;;;;;;;;;15.02;100.00;96167.47;1049098;28;19924;-72
2021/06/24 00:32:38;;;;;;;;;;;;;;;15.03;100.00;96166.38;1048737;28;19950;-73
2021/06/24 00:33:08;;;;;;;;;;;;;;;15.01;100.00;96170.47;1048586;28;20357;-73
2021/06/24 00:33:38;;;;;;;;;;;;;;;15.01;100.00;96170.47;1048687;28;20130;-73
2021/06/24 00:34:08;;;;;;;;;;;;;;;15.01;100.00;96173.97;1048752;28;19923;-72
2021/06/24 00:34:39;;;;;;;;;;;;;;;14.96;100.00;96174.03;1049105;28;19912;-73
2021/06/24 00:35:09;;;;;;;;;;;;;;;14.95;100.00;96171.66;1049016;28;19912;-73
2021/06/24 00:35:39;;;;;;;;;;;;;;;14.96;100.00;96174.03;1048945;28;19916;-73
2021/06/24 00:36:10;;;;;;;;;;;;;;;14.96;100.00;96173.25;1048887;28;19962;-73
2021/06/24 00:36:40;;;;;;;;;;;;;;;14.96;100.00;96170.56;1049103;28;20266;-73
2021/06/24 00:37:10;;;;;;;;;;;;;;;14.95;100.00;96166.28;1049100;28;19948;-73
2021/06/24 00:37:41;;;;;;;;;;;;;;;14.93;100.00;96160.38;1049044;28;19912;-72
2021/06/24 00:38:11;;;;;;;;;;;;;;;14.90;100.00;96164.44;1049118;28;20007;-73
2021/06/24 00:38:41;;;;;;;;;;;;;;;14.89;100.00;96156.66;1049023;28;19923;-73
2021/06/24 00:39:12;;;;;;;;;;;;;;;14.88;100.00;96155.06;1049077;28;19909;-73
2021/06/24 00:39:42;;;;;;;;;;;;;;;14.89;100.00;96162.84;1049047;28;20373;-72
2021/06/24 00:40:12;;;;;;;;;;;;;;;14.85;100.00;96150.28;1048982;28;19917;-73
2021/06/24 00:40:43;;;;;;;;;;;;;;;14.80;100.00;96156.53;1049017;28;19938;-73
2021/06/24 00:41:13;;;;;;;;;;;;;;;14.76;100.00;96160.91;1049094;28;20369;-73
2021/06/24 00:41:44;;;;;;;;;;;;;;;14.75;100.00;96154.72;1048742;28;19952;-73
2021/06/24 00:42:14;;;;;;;;;;;;;;;14.76;100.00;96159.00;1048640;28;19916;-73
2021/06/24 00:42:45;;;;;;;;;;;;;;;14.75;100.00;96153.94;1048784;28;19912;-73
2021/06/24 00:43:16;;;;;;;;;;;;;;;14.74;100.00;96160.38;1048719;28;19923;-73
2021/06/24 00:43:46;;;;;;;;;;;;;;;14.77;100.00;96157.13;1048998;28;20369;-72
2021/06/24 00:44:16;;;;;;;;;;;;;;;14.81;100.00;96153.56;1048969;28;19916;-73
2021/06/24 00:44:47;;;;;;;;;;;;;;;14.82;100.00;96157.03;1049141;28;19952;-73
2021/06/24 00:45:17;;;;;;;;;;;;;;;14.85;100.00;96156.47;1048776;28;20288;-73
2021/06/24 00:45:47;;;;;;;;;;;;;;;14.84;100.00;96157.53;1049065;28;19955;-73
2021/06/24 00:46:17;;;;;;;;;;;;;;;14.86;100.00;96162.63;1048954;28;19920;-73
2021/06/24 00:46:51;;;;;;;;;;;;;;;14.88;100.00;96144.31;1049030;28;19942;-73
2021/06/24 00:47:22;;;;;;;;;;;;;;;14.89;100.00;96156.66;1049052;28;20369;-74
2021/06/24 00:47:52;;;;;;;;;;;;;;;14.88;100.00;96161.25;1048973;28;20003;-73
2021/06/24 00:48:23;;;;;;;;;;;;;;;14.91;100.00;96157.97;1048884;28;19912;-73
2021/06/24 00:48:56;;;;;;;;;;;;;;;14.82;100.00;96157.84;1049027;28;19962;-73
2021/06/24 00:49:27;;;;;;;;;;;;;;;14.82;100.00;96157.84;1048909;28;19962;-74
2021/06/24 00:49:57;;;;;;;;;;;;;;;14.81;100.00;96153.56;1048920;28;19916;-73
2021/06/24 00:50:27;;;;;;;;;;;;;;;14.83;100.00;96158.63;1048583;28;19920;-73
2021/06/24 00:50:58;;;;;;;;;;;;;;;14.85;100.00;96161.03;1048718;28;19943;-73
2021/06/24 00:51:28;;;;;;;;;;;;;;;14.85;100.00;96150.28;1048722;28;20261;-73
2021/06/24 00:51:58;;;;;;;;;;;;;;;14.87;100.00;96154.25;1048784;28;19920;-73
2021/06/24 00:52:28;;;;;;;;;;;;;;;14.88;100.00;96163.94;1048945;28;19955;-73
2021/06/24 00:52:59;;;;;;;;;;;;;;;14.88;100.00;96155.06;1049017;28;19944;-73
2021/06/24 00:53:30;;;;;;;;;;;;;;;14.89;100.00;96162.03;1048721;28;19912;-73
2021/06/24 00:54:01;;;;;;;;;;;;;;;14.87;100.00;96159.66;1048826;28;19916;-74
2021/06/24 00:54:31;;;;;;;;;;;;;;;14.82;100.00;96165.91;1049040;28;20324;-74
2021/06/24 00:55:01;;;;;;;;;;;;;;;14.82;100.00;96159.72;1048636;28;19916;-72
2021/06/24 00:55:42;;;;;;;;;;;;;;;14.85;100.00;96156.47;1048746;28;19966;-73
2021/06/24 00:56:16;;;;;;;;;;;;;;;14.84;100.00;96165.59;1048702;28;20344;-73
2021/06/24 00:56:46;;;;;;;;;;;;;;;14.80;100.00;96165.41;1048696;28;19912;-73
2021/06/24 00:57:17;;;;;;;;;;;;;;;14.83;100.00;96162.13;1048603;28;19913;-73
2021/06/24 00:57:47;;;;;;;;;;;;;;;14.81;100.00;96166.19;1048713;28;20417;-73
2021/06/24 00:58:20;;;;;;;;;;;;;;;14.83;100.00;96158.63;1048667;28;19916;-73
2021/06/24 00:58:50;;;;;;;;;;;;;;;14.84;100.00;96165.59;1048667;28;19912;-73
2021/06/24 00:59:20;;;;;;;;;;;;;;;14.83;100.00;96158.63;1048952;28;20259;-73
2021/06/24 00:59:50;;;;;;;;;;;;;;;14.81;100.00;96163.50;1048737;28;19912;-73
2021/06/24 01:00:21;;;;;;;;;;;;;;;14.80;100.00;96164.63;1048561;28;19916;-73
2021/06/24 01:00:53;;;;;;;;;;;;;;;14.82;100.00;96157.84;1048556;28;19920;-73
2021/06/24 01:01:24;;;;;;;;;;;;;;;14.85;100.00;96161.03;1048438;28;19909;-73
2021/06/24 01:01:54;;;;;;;;;;;;;;;14.81;100.00;96155.44;1049027;28;19966;-73
2021/06/24 01:02:24;;;;;;;;;;;;;;;14.82;100.00;96154.34;1048870;28;20258;-73
2021/06/24 01:02:54;;;;;;;;;;;;;;;14.80;100.00;96157.34;1048247;28;19912;-74
2021/06/24 01:03:25;;;;;;;;;;;;;;;14.75;100.00;96162.78;1048708;28;19966;-73
2021/06/24 01:03:55;;;;;;;;;;;;;;;14.72;100.00;96149.13;1048717;28;19912;-73
2021/06/24 01:04:25;;;;;;;;;;;;;;;14.74;100.00;96157.69;1048702;28;19920;-74
2021/06/24 01:04:56;;;;;;;;;;;;;;;14.73;100.00;96162.28;1048986;28;19916;-73
2021/06/24 01:05:26;;;;;;;;;;;;;;;14.76;100.00;96158.22;1048990;28;19912;-73
2021/06/24 01:05:56;;;;;;;;;;;;;;;14.78;100.00;96156.00;1049061;28;20410;-73
2021/06/24 01:06:27;;;;;;;;;;;;;;;14.73;100.00;96156.88;1048941;28;19913;-74
2021/06/24 01:06:57;;;;;;;;;;;;;;;14.73;100.00;96156.09;1048911;28;19956;-73
2021/06/24 01:07:27;;;;;;;;;;;;;;;14.72;100.00;96154.50;1049014;28;20404;-73
2021/06/24 01:07:57;;;;;;;;;;;;;;;14.71;100.00;96150.22;1048982;28;19954;-74
2021/06/24 01:08:29;;;;;;;;;;;;;;;14.67;100.00;96147.31;1049018;28;19909;-74
2021/06/24 01:09:00;;;;;;;;;;;;;;;14.67;100.00;96151.88;1048551;28;19917;-73
2021/06/24 01:09:30;;;;;;;;;;;;;;;14.66;100.00;96142.22;1048693;28;20365;-74
2021/06/24 01:10:00;;;;;;;;;;;;;;;14.66;100.00;96148.41;1048699;28;19913;-75
2021/06/24 01:10:30;;;;;;;;;;;;;;;14.67;100.00;96136.53;1048708;28;19948;-73
2021/06/24 01:11:01;;;;;;;;;;;;;;;14.67;100.00;96139.22;1048987;28;19916;-73
2021/06/24 01:11:31;;;;;;;;;;;;;;;14.68;100.00;96140.03;1048997;28;19920;-73
2021/06/24 01:12:05;;;;;;;;;;;;;;;14.68;100.00;96142.72;1048894;28;20373;-73
2021/06/24 01:12:35;;;;;;;;;;;;;;;14.69;100.00;96141.63;1048685;28;20359;-74
2021/06/24 01:13:06;;;;;;;;;;;;;;;14.67;100.00;96133.84;1048599;28;19912;-74
2021/06/24 01:13:36;;;;;;;;;;;;;;;14.67;100.00;96133.84;1048702;28;19924;-74
2021/06/24 01:14:07;;;;;;;;;;;;;;;14.69;100.00;96139.75;1048636;28;20415;-74
2021/06/24 01:14:37;;;;;;;;;;;;;;;14.67;100.00;96138.44;1048660;28;19917;-73
2021/06/24 01:15:08;;;;;;;;;;;;;;;14.63;100.00;96132.84;1048322;28;19912;-73
2021/06/24 01:15:38;;;;;;;;;;;;;;;14.62;100.00;96131.25;1048643;28;19925;-73
2021/06/24 01:16:08;;;;;;;;;;;;;;;14.64;100.00;96129.06;1048544;28;19920;-73
2021/06/24 01:16:39;;;;;;;;;;;;;;;14.60;100.00;96127.25;1048971;28;19923;-74
2021/06/24 01:17:09;;;;;;;;;;;;;;;14.58;100.00;96130.22;1048906;28;19913;-73
2021/06/24 01:17:39;;;;;;;;;;;;;;;14.54;100.00;96127.34;1048896;28;19912;-74
2021/06/24 01:18:10;;;;;;;;;;;;;;;14.52;100.00;96131.38;1048747;28;19956;-74
2021/06/24 01:18:40;;;;;;;;;;;;;;;14.51;100.00;96129.78;1049344;28;19939;-74
2021/06/24 01:19:17;;;;;;;;;;;;;;;14.50;100.00;96123.63;1049837;28;19962;-74
2021/06/24 01:19:47;;;;;;;;;;;;;;;14.51;100.00;96125.22;1049447;28;19912;-74
2021/06/24 01:20:21;;;;;;;;;;;;;;;14.52;100.00;96120.63;1049455;28;19912;-74
2021/06/24 01:20:51;;;;;;;;;;;;;;;14.53;100.00;96128.41;1049574;28;19916;-74
2021/06/24 01:21:21;;;;;;;;;;;;;;;14.53;100.00;96117.66;1049546;28;19920;-73
2021/06/24 01:21:52;;;;;;;;;;;;;;;14.56;100.00;96117.06;1049834;28;19917;-73
2021/06/24 01:22:22;;;;;;;;;;;;;;;14.55;100.00;96126.22;1049782;28;19909;-74
2021/06/24 01:22:52;;;;;;;;;;;;;;;14.57;100.00;96118.66;1049913;28;19917;-74
2021/06/24 01:23:22;;;;;;;;;;;;;;;14.57;100.00;96117.88;1049732;28;19919;-73
2021/06/24 01:23:53;;;;;;;;;;;;;;;14.57;100.00;96125.94;1049847;28;19916;-74
2021/06/24 01:24:23;;;;;;;;;;;;;;;14.57;100.00;96121.34;1049729;28;19912;-74
2021/06/24 01:24:53;;;;;;;;;;;;;;;14.56;100.00;96125.13;1049475;28;19992;-74
2021/06/24 01:25:24;;;;;;;;;;;;;;;14.60;100.00;96121.88;1049443;28;19966;-74
2021/06/24 01:25:54;;;;;;;;;;;;;;;14.60;100.00;96119.19;1049480;28;19924;-74
2021/06/24 01:26:24;;;;;;;;;;;;;;;14.59;100.00;96123.78;1049481;28;20410;-74
2021/06/24 01:26:54;;;;;;;;;;;;;;;14.56;100.00;96119.75;1049829;28;19962;-74
2021/06/24 01:27:25;;;;;;;;;;;;;;;14.55;100.00;96120.84;1049395;28;19934;-74
2021/06/24 01:27:57;;;;;;;;;;;;;;;14.55;100.00;96122.75;1049435;28;20373;-74
2021/06/24 01:28:27;;;;;;;;;;;;;;;14.53;100.00;96125.72;1049472;28;20007;-73
2021/06/24 01:28:58;;;;;;;;;;;;;;;14.54;100.00;96127.34;1049565;28;20397;-74
2021/06/24 01:29:28;;;;;;;;;;;;;;;14.56;100.00;96122.44;1049769;28;19919;-74
2021/06/24 01:29:58;;;;;;;;;;;;;;;14.55;100.00;96123.53;1049627;28;19961;-74
2021/06/24 01:30:28;;;;;;;;;;;;;;;14.57;100.00;96115.97;1049639;28;19952;-74
2021/06/24 01:30:59;;;;;;;;;;;;;;;14.60;100.00;96122.69;1049850;28;19908;-74
2021/06/24 01:31:29;;;;;;;;;;;;;;;14.59;100.00;96117.56;1049730;28;20407;-74
2021/06/24 01:31:59;;;;;;;;;;;;;;;14.58;100.00;96124.84;1049757;28;19909;-74
2021/06/24 01:32:30;;;;;;;;;;;;;;;14.59;100.00;96125.63;1049293;28;19949;-74
2021/06/24 01:33:01;;;;;;;;;;;;;;;14.59;100.00;96126.47;1045134;28;19935;-73
2021/06/24 01:33:31;;;;;;;;;;;;;;;14.58;100.00;96124.84;1045341;28;20039;-74
2021/06/24 01:34:08;;;;;;;;;;;;;;;14.61;100.00;96126.16;1045421;28;19959;-74
2021/06/24 01:34:40;;;;;;;;;;;;;;;14.62;100.00;96133.94;1049544;28;20450;-73
2021/06/24 01:35:11;;;;;;;;;;;;;;;14.64;100.00;96131.75;1049780;28;19958;-75
2021/06/24 01:35:41;;;;;;;;;;;;;;;14.64;100.00;96130.94;1049769;28;20500;-74
2021/06/24 01:36:13;;;;;;;;;;;;;;;14.66;100.00;96142.22;1053567;28;20015;-74
2021/06/24 01:36:43;;;;;;;;;;;;;;;14.67;100.00;96136.53;1053672;28;20007;-74
2021/06/24 01:37:13;;;;;;;;;;;;;;;14.67;100.00;96141.13;1053598;28;20349;-74
2021/06/24 01:37:44;;;;;;;;;;;;;;;14.68;100.00;96140.81;1053489;28;19904;-75
2021/06/24 01:38:14;;;;;;;;;;;;;;;14.67;100.00;96135.75;1049590;28;19907;-74
2021/06/24 01:38:44;;;;;;;;;;;;;;;14.68;100.00;96140.81;1049772;28;19905;-74
2021/06/24 01:39:15;;;;;;;;;;;;;;;14.69;100.00;96138.94;1049739;28;19904;-74
2021/06/24 01:39:47;;;;;;;;;;;;;;;14.70;100.00;96144.03;1049748;28;19901;-74
2021/06/24 01:40:19;;;;;;;;;;;;;;;14.72;100.00;96136.47;1049715;28;19901;-74
2021/06/24 01:40:49;;;;;;;;;;;;;;;14.74;100.00;96141.53;1049699;28;19923;-74
2021/06/24 01:41:20;;;;;;;;;;;;;;;14.72;100.00;96141.03;1049666;28;20265;-75
2021/06/24 01:41:54;;;;;;;;;;;;;;;14.72;100.00;96138.34;1049737;28;19928;-74
2021/06/24 01:42:27;;;;;;;;;;;;;;;14.73;100.00;96137.25;1049689;28;20372;-74
2021/06/24 01:42:57;;;;;;;;;;;;;;;14.72;100.00;96139.16;1049757;28;19904;-74
2021/06/24 01:43:28;;;;;;;;;;;;;;;14.70;100.00;96132.47;1049367;28;20380;-75
2021/06/24 01:43:58;;;;;;;;;;;;;;;14.72;100.00;96135.66;1049429;28;20369;-75
2021/06/24 01:44:29;;;;;;;;;;;;;;;14.70;100.00;96132.47;1049293;28;19905;-74
2021/06/24 01:44:59;;;;;;;;;;;;;;;14.74;100.00;96128.09;1049187;28;19913;-74
2021/06/24 01:45:29;;;;;;;;;;;;;;;14.77;100.00;96135.59;1049461;28;19966;-74
2021/06/24 01:46:00;;;;;;;;;;;;;;;14.76;100.00;96131.31;1049689;28;19943;-74
2021/06/24 01:46:30;;;;;;;;;;;;;;;14.74;100.00;96130.78;1049654;28;20345;-74
2021/06/24 01:47:00;;;;;;;;;;;;;;;14.77;100.00;96131.00;1049394;28;19904;-74
2021/06/24 01:47:31;;;;;;;;;;;;;;;14.76;100.00;96136.69;1045097;28;19912;-74
2021/06/24 01:48:01;;;;;;;;;;;;;;;14.76;100.00;96129.41;1045273;28;19909;-74
2021/06/24 01:48:31;;;;;;;;;;;;;;;14.78;100.00;96129.13;1045181;28;19912;-74
2021/06/24 01:49:01;;;;;;;;;;;;;;;14.77;100.00;96133.69;1049421;28;20364;-74
2021/06/24 01:49:32;;;;;;;;;;;;;;;14.78;100.00;96137.19;1049691;28;19905;-75
2021/06/24 01:50:03;;;;;;;;;;;;;;;14.80;100.00;96132.31;1049691;28;19916;-74
2021/06/24 01:50:33;;;;;;;;;;;;;;;14.80;100.00;96132.31;1049545;28;19912;-74
2021/06/24 01:51:04;;;;;;;;;;;;;;;14.77;100.00;96131.00;1049656;28;20357;-75
2021/06/24 01:51:34;;;;;;;;;;;;;;;14.77;100.00;96122.94;1049731;28;19913;-77
2021/06/24 01:52:04;;;;;;;;;;;;;;;14.76;100.00;96128.63;1049590;28;19974;-78
2021/06/24 01:52:35;;;;;;;;;;;;;;;14.73;100.00;96131.88;1049539;28;20003;-77
2021/06/24 01:53:05;;;;;;;;;;;;;;;14.73;100.00;96131.88;1049565;28;19912;-77
2021/06/24 01:53:35;;;;;;;;;;;;;;;14.71;100.00;96126.81;1049355;28;19909;-77
2021/06/24 01:54:05;;;;;;;;;;;;;;;14.71;100.00;96134.06;1049666;28;19917;-77
2021/06/24 01:54:36;;;;;;;;;;;;;;;14.69;100.00;96130.84;1049614;28;19944;-78
2021/06/24 01:55:06;;;;;;;;;;;;;;;14.71;100.00;96126.00;1049625;28;20416;-78
2021/06/24 01:55:39;;;;;;;;;;;;;;;14.71;100.00;96132.19;1049603;28;20053;-77
2021/06/24 01:56:10;;;;;;;;;;;;;;;14.69;100.00;96136.25;1049755;28;19912;-78
2021/06/24 01:56:40;;;;;;;;;;;;;;;14.70;100.00;96135.97;1049693;28;19935;-78
2021/06/24 01:57:15;;;;;;;;;;;;;;;14.71;100.00;96131.38;1049658;28;20281;-78
2021/06/24 01:57:46;;;;;;;;;;;;;;;14.71;100.00;96134.06;1049624;28;20285;-77
2021/06/24 01:58:19;;;;;;;;;;;;;;;14.72;100.00;96138.34;1049574;28;19912;-77
2021/06/24 01:58:49;;;;;;;;;;;;;;;14.69;100.00;96136.25;1049338;28;19962;-77
2021/06/24 01:59:19;;;;;;;;;;;;;;;14.71;100.00;96137.56;1049347;28;19944;-78
2021/06/24 01:59:49;;;;;;;;;;;;;;;14.68;100.00;96135.44;1049359;28;19963;-78
2021/06/24 02:00:20;;;;;;;;;;;;;;;14.68;100.00;96138.13;1049165;28;19918;-78
2021/06/24 02:00:51;;;;;;;;;;;;;;;14.70;100.00;96137.88;1049250;28;20326;-78
2021/06/24 02:01:21;;;;;;;;;;;;;;;14.70;100.00;96141.34;1049287;28;19913;-77
2021/06/24 02:01:52;;;;;;;;;;;;;;;14.72;100.00;96141.84;1049345;28;19917;-78
2021/06/24 02:02:22;;;;;;;;;;;;;;;14.76;100.00;96139.38;1049385;28;19990;-78
2021/06/24 02:02:52;;;;;;;;;;;;;;;14.76;100.00;96140.19;1049618;28;19916;-78
2021/06/24 02:03:22;;;;;;;;;;;;;;;14.77;100.00;96136.38;1049259;28;19912;-78
2021/06/24 02:03:53;;;;;;;;;;;;;;;14.77;100.00;96146.34;1049266;28;19916;-77
2021/06/24 02:04:27;;;;;;;;;;;;;;;14.80;100.00;96143.09;1049346;28;20475;-78
2021/06/24 02:04:57;;;;;;;;;;;;;;;14.79;100.00;96141.47;1049752;28;19917;-78
2021/06/24 02:05:27;;;;;;;;;;;;;;;14.77;100.00;96140.97;1053070;28;19918;-77
2021/06/24 02:05:57;;;;;;;;;;;;;;;14.72;100.00;96139.16;1049566;28;19916;-78
2021/06/24 02:06:28;;;;;;;;;;;;;;;14.72;100.00;96146.44;1049669;28;19913;-77
2021/06/24 02:06:58;;;;;;;;;;;;;;;14.69;100.00;96141.63;1049594;28;19944;-78
2021/06/24 02:07:28;;;;;;;;;;;;;;;14.70;100.00;96143.25;1049546;28;20373;-77
2021/06/24 02:07:58;;;;;;;;;;;;;;;14.74;100.00;96146.94;1049564;28;20038;-78
2021/06/24 02:08:29;;;;;;;;;;;;;;;14.73;100.00;96142.63;1049295;28;19919;-78
2021/06/24 02:08:59;;;;;;;;;;;;;;;14.74;100.00;96144.22;1049031;28;19912;-78
2021/06/24 02:09:30;;;;;;;;;;;;;;;14.75;100.00;96145.84;1045127;28;19916;-77
2021/06/24 02:10:00;;;;;;;;;;;;;;;14.74;100.00;96142.38;1045189;28;20425;-78
2021/06/24 02:10:30;;;;;;;;;;;;;;;14.75;100.00;96143.16;1049321;28;20365;-78
2021/06/24 02:11:01;;;;;;;;;;;;;;;14.77;100.00;96144.47;1045192;28;19931;-78
2021/06/24 02:11:31;;;;;;;;;;;;;;;14.76;100.00;96147.44;1049278;28;19920;-77
2021/06/24 02:12:02;;;;;;;;;;;;;;;14.75;100.00;96148.53;1049336;28;20502;-76
2021/06/24 02:12:32;;;;;;;;;;;;;;;14.74;100.00;96137.00;1049336;28;19944;-77
2021/06/24 02:13:02;;;;;;;;;;;;;;;14.74;100.00;96141.53;1049635;28;19927;-77
2021/06/24 02:13:32;;;;;;;;;;;;;;;14.73;100.00;96143.44;1049572;28;19908;-77
2021/06/24 02:14:03;;;;;;;;;;;;;;;14.71;100.00;96144.84;1049590;28;19909;-77
2021/06/24 02:14:33;;;;;;;;;;;;;;;14.76;100.00;96144.75;1049560;28;19916;-77
2021/06/24 02:15:04;;;;;;;;;;;;;;;14.76;100.00;96139.38;1049738;28;20280;-77
2021/06/24 02:15:34;;;;;;;;;;;;;;;14.75;100.00;96143.16;1049573;28;19930;-76
2021/06/24 02:16:05;;;;;;;;;;;;;;;14.77;100.00;96143.66;1049614;28;20357;-76
2021/06/24 02:16:35;;;;;;;;;;;;;;;14.77;100.00;96132.91;1049562;28;20361;-77
2021/06/24 02:17:05;;;;;;;;;;;;;;;14.77;100.00;96135.59;1049650;28;19913;-77
2021/06/24 02:17:36;;;;;;;;;;;;;;;14.72;100.00;96133.78;1049502;28;19963;-76
2021/06/24 02:18:06;;;;;;;;;;;;;;;14.72;100.00;96127.59;1049616;28;19913;-77
2021/06/24 02:18:36;;;;;;;;;;;;;;;14.72;100.00;96130.28;1049569;28;19908;-77
2021/06/24 02:19:07;;;;;;;;;;;;;;;14.71;100.00;96129.50;1049580;28;19951;-77
2021/06/24 02:19:37;;;;;;;;;;;;;;;14.69;100.00;96131.69;1049512;28;20368;-76
2021/06/24 02:20:09;;;;;;;;;;;;;;;14.69;100.00;96130.84;1049617;28;19908;-77
2021/06/24 02:20:39;;;;;;;;;;;;;;;14.67;100.00;96128.47;1049471;28;19908;-77
2021/06/24 02:21:09;;;;;;;;;;;;;;;14.68;100.00;96131.97;1049521;28;19912;-77
2021/06/24 02:21:40;;;;;;;;;;;;;;;14.63;100.00;96126.66;1049643;28;19940;-79
2021/06/24 02:22:10;;;;;;;;;;;;;;;14.65;100.00;96125.28;1049602;28;20287;-77
2021/06/24 02:22:41;;;;;;;;;;;;;;;14.64;100.00;96121.00;1049238;28;19959;-77
2021/06/24 02:23:11;;;;;;;;;;;;;;;14.67;100.00;96124.97;1049225;28;19908;-77
2021/06/24 02:23:41;;;;;;;;;;;;;;;14.66;100.00;96118.81;1049286;28;19928;-77
2021/06/24 02:24:11;;;;;;;;;;;;;;;14.67;100.00;96120.41;1049223;28;19924;-77
2021/06/24 02:24:42;;;;;;;;;;;;;;;14.66;100.00;96116.13;1049477;28;19911;-77
2021/06/24 02:25:13;;;;;;;;;;;;;;;14.66;100.00;96110.75;1049614;28;19915;-77
2021/06/24 02:25:43;;;;;;;;;;;;;;;14.67;100.00;96111.53;1049539;28;20323;-77
2021/06/24 02:26:13;;;;;;;;;;;;;;;14.65;100.00;96111.03;1053397;28;19970;-78
2021/06/24 02:26:46;;;;;;;;;;;;;;;14.64;100.00;96109.41;1053332;28;19965;-77
2021/06/24 02:27:16;;;;;;;;;;;;;;;14.60;100.00;96111.13;1053501;28;19912;-78
2021/06/24 02:27:46;;;;;;;;;;;;;;;14.61;100.00;96112.72;1053078;28;20349;-78
2021/06/24 02:28:17;;;;;;;;;;;;;;;14.59;100.00;96113.00;1049563;28;19912;-78
2021/06/24 02:28:47;;;;;;;;;;;;;;;14.56;100.00;96109.00;1049430;28;19912;-77
2021/06/24 02:29:17;;;;;;;;;;;;;;;14.53;100.00;96112.25;1049614;28;19912;-77
2021/06/24 02:29:48;;;;;;;;;;;;;;;14.56;100.00;96109.00;1048986;28;19912;-78
2021/06/24 02:30:18;;;;;;;;;;;;;;;14.55;100.00;96109.31;1049275;28;20003;-78
2021/06/24 02:30:48;;;;;;;;;;;;;;;14.55;100.00;96110.09;1048903;28;20323;-77
2021/06/24 02:31:19;;;;;;;;;;;;;;;14.53;100.00;96103.41;1049202;28;20403;-79
2021/06/24 02:31:49;;;;;;;;;;;;;;;14.55;100.00;96104.72;1049562;28;19915;-78
2021/06/24 02:32:19;;;;;;;;;;;;;;;14.50;100.00;96107.50;1049052;28;19905;-77
2021/06/24 02:32:49;;;;;;;;;;;;;;;14.50;100.00;96104.78;1049210;28;19913;-78
2021/06/24 02:33:20;;;;;;;;;;;;;;;14.48;100.00;96104.28;1049109;28;19952;-78
2021/06/24 02:33:50;;;;;;;;;;;;;;;14.54;100.00;96102.34;1049177;28;20381;-78
2021/06/24 02:34:22;;;;;;;;;;;;;;;14.55;100.00;96102.03;1048755;28;20390;-77
2021/06/24 02:34:53;;;;;;;;;;;;;;;14.53;100.00;96100.72;1045045;28;19917;-77
2021/06/24 02:35:23;;;;;;;;;;;;;;;14.51;100.00;96095.63;1041017;28;19917;-78
2021/06/24 02:35:57;;;;;;;;;;;;;;;14.52;100.00;96107.97;1040887;28;19959;-77
2021/06/24 02:36:27;;;;;;;;;;;;;;;14.54;100.00;96102.34;1041924;28;20381;-77
2021/06/24 02:36:58;;;;;;;;;;;;;;;14.53;100.00;96106.88;1049167;28;19913;-78